Grado, Spain
Current Conditions -  °F | °C
As of 9:30 AM on Saturday 20 Dec 2014 (Local Time) from LEAS Reporting Station
Drizzle Drizzle  
Wind Chill: 50°   Ceiling: 1400
Heat Index: 50°   Visibility: 4mi
Dew Point: 50°   Wind: 3mph
Humidity: 100%   Direction: 200°SSW
Pressure: 30.53"   Gusts: NA
Location:  43.39°N, 6.07°W
Report Text: LEAS 200830Z 20003KT 6000 -DZ BKN014 BKN020 10/10 Q1034 NOSIG
Loading
Personal Weather Stations






























Interactive Weather Map New forecast layout! Learn more

10-Day Weather Forecast

Advertisements
Track Severe Weather on mobile